createdAt,value
2019-01-24T00:02:07.280Z,50.83
2019-01-24T00:04:37.532Z,43.40
2019-01-24T00:07:07.690Z,53.02
2019-01-24T00:09:37.874Z,47.78
2019-01-24T00:12:08.090Z,54.98
2019-01-24T00:14:38.226Z,51.02
2019-01-24T00:17:08.397Z,50.38
2019-01-24T00:19:38.584Z,50.92
2019-01-24T00:22:08.760Z,51.08
2019-01-24T00:24:38.948Z,48.33
2019-01-24T00:29:40.575Z,42.38
2019-01-24T00:32:10.700Z,47.53
2019-01-24T00:34:40.892Z,42.67
2019-01-24T00:37:11.016Z,49.20
2019-01-24T00:39:41.118Z,48.08
2019-01-24T00:42:11.192Z,43.00
2019-01-24T00:44:41.336Z,43.95
2019-01-24T00:47:11.439Z,51.37
2019-01-24T00:49:41.518Z,48.35
2019-01-24T00:52:11.653Z,42.17
2019-01-24T00:54:41.883Z,49.83
2019-01-24T00:57:11.977Z,51.88
2019-01-24T00:59:42.169Z,44.25
2019-01-24T01:02:12.401Z,40.28
2019-01-24T01:04:43.306Z,46.88
2019-01-24T01:07:13.431Z,51.23
2019-01-24T01:09:43.592Z,47.88
2019-01-24T01:12:13.684Z,47.48
2019-01-24T01:14:43.846Z,44.63
2019-01-24T01:17:13.942Z,46.73
2019-01-24T01:19:44.113Z,50.08
2019-01-24T01:22:14.186Z,49.38
2019-01-24T01:24:44.323Z,45.85
2019-01-24T01:27:15.524Z,47.88
2019-01-24T01:29:45.752Z,39.73
2019-01-24T01:32:15.902Z,46.65
2019-01-24T01:34:46.002Z,46.65
2019-01-24T01:37:16.137Z,46.33
2019-01-24T01:39:46.296Z,47.15
2019-01-24T01:42:16.346Z,50.48
2019-01-24T01:44:46.468Z,52.90
2019-01-24T01:47:16.596Z,47.85
2019-01-24T01:49:46.685Z,51.73
2019-01-24T01:52:16.812Z,50.00
2019-01-24T01:54:46.874Z,59.73
2019-01-24T01:57:16.852Z,41.92
2019-01-24T01:59:47.046Z,41.60
2019-01-24T02:02:17.073Z,50.73
2019-01-24T02:04:48.313Z,42.95
2019-01-24T02:07:18.358Z,54.70
2019-01-24T02:09:48.458Z,47.65
2019-01-24T02:12:18.584Z,56.48
2019-01-24T02:14:48.618Z,44.40
2019-01-24T02:17:18.651Z,51.35
2019-01-24T02:19:48.748Z,45.67
2019-01-24T02:22:18.774Z,46.58
2019-01-24T02:24:48.946Z,47.67
2019-01-24T02:27:19.050Z,47.23
2019-01-24T02:29:49.244Z,49.80
2019-01-24T02:32:19.190Z,50.65
2019-01-24T02:34:49.829Z,55.35
2019-01-24T02:37:20.165Z,53.17
2019-01-24T02:39:50.266Z,54.65
2019-01-24T02:42:20.395Z,45.73
2019-01-24T02:44:50.558Z,54.88
2019-01-24T02:47:20.600Z,55.23
2019-01-24T02:49:50.680Z,58.33
2019-01-24T02:52:20.771Z,53.68
2019-01-24T02:54:50.869Z,53.05
2019-01-24T02:57:21.050Z,57.70
2019-01-24T02:59:51.250Z,42.60
2019-01-24T03:02:21.324Z,44.55
2019-01-24T03:04:56.866Z,49.98
2019-01-24T03:07:23.867Z,52.13
2019-01-24T03:09:54.054Z,47.38
2019-01-24T03:12:24.115Z,54.95
2019-01-24T03:14:55.352Z,49.85
2019-01-24T03:17:25.508Z,57.75
2019-01-24T03:19:55.707Z,56.20
2019-01-24T03:22:25.744Z,58.40
2019-01-24T03:24:55.938Z,48.28
2019-01-24T03:27:25.929Z,53.15
2019-01-24T03:29:56.039Z,56.00
2019-01-24T03:32:26.171Z,46.28
2019-01-24T03:34:56.427Z,54.05
2019-01-24T03:37:26.699Z,45.15
2019-01-24T03:39:56.784Z,42.48
2019-01-24T03:42:26.946Z,43.02
2019-01-24T03:44:57.204Z,41.53
2019-01-24T03:47:27.336Z,51.90
2019-01-24T03:49:57.568Z,41.42
2019-01-24T03:52:27.719Z,54.20
2019-01-24T03:54:57.902Z,50.90
2019-01-24T03:57:28.124Z,56.08
2019-01-24T03:59:58.374Z,46.73
2019-01-24T04:02:28.512Z,53.85
2019-01-24T04:04:58.768Z,41.37
2019-01-24T04:07:28.973Z,42.27
2019-01-24T04:09:59.214Z,48.98
2019-01-24T04:12:29.280Z,52.15
2019-01-24T04:14:59.501Z,48.15
2019-01-24T04:17:29.549Z,46.53
2019-01-24T04:19:59.740Z,47.33
2019-01-24T04:22:29.862Z,41.10
2019-01-24T04:25:00.038Z,42.93
2019-01-24T04:27:30.173Z,48.65
2019-01-24T04:30:00.346Z,43.73
2019-01-24T04:32:30.478Z,45.78
2019-01-24T04:35:00.640Z,46.37
2019-01-24T04:37:30.763Z,49.45
2019-01-24T04:40:00.879Z,56.65
2019-01-24T04:42:31.028Z,46.00
2019-01-24T04:45:01.158Z,46.75
2019-01-24T04:47:31.281Z,49.85
2019-01-24T04:50:01.404Z,52.90
2019-01-24T04:52:31.583Z,53.90
2019-01-24T04:55:01.855Z,50.60
2019-01-24T04:57:32.014Z,43.73
2019-01-24T05:00:02.166Z,52.73
2019-01-24T05:02:32.221Z,48.35
2019-01-24T05:05:02.526Z,48.17
2019-01-24T05:07:32.546Z,49.48
2019-01-24T05:10:02.687Z,59.67
2019-01-24T05:12:32.777Z,44.55
2019-01-24T05:15:02.880Z,47.67
2019-01-24T05:17:32.870Z,44.67
2019-01-24T05:20:03.032Z,43.63
2019-01-24T05:22:33.094Z,61.40
2019-01-24T05:25:03.221Z,59.67
2019-01-24T05:27:33.276Z,49.85
2019-01-24T05:30:03.457Z,81.53
2019-01-24T05:32:33.692Z,80.67
2019-01-24T05:35:03.913Z,65.10
2019-01-24T05:37:33.996Z,55.12
2019-01-24T05:40:05.174Z,55.98
2019-01-24T05:42:35.337Z,61.15
2019-01-24T05:45:06.037Z,61.30
2019-01-24T05:47:36.031Z,55.88
2019-01-24T05:50:06.796Z,64.70
2019-01-24T05:52:36.920Z,53.40
2019-01-24T05:55:07.755Z,57.60
2019-01-24T05:57:37.896Z,66.90
2019-01-24T06:00:11.835Z,58.85
2019-01-24T06:02:41.888Z,61.18
2019-01-24T06:05:12.470Z,77.53
2019-01-24T06:07:42.552Z,60.03
2019-01-24T06:10:14.216Z,62.40
2019-01-24T06:12:44.258Z,61.25
2019-01-24T06:15:15.362Z,67.17
2019-01-24T06:17:45.501Z,64.10
2019-01-24T06:20:15.647Z,64.65
2019-01-24T06:22:45.808Z,64.03
2019-01-24T06:25:15.977Z,64.05
2019-01-24T06:27:46.113Z,70.85
2019-01-24T06:30:18.150Z,68.80
2019-01-24T06:32:48.206Z,65.72
2019-01-24T06:35:18.393Z,67.20
2019-01-24T06:37:48.544Z,66.67
2019-01-24T06:40:18.859Z,63.73
2019-01-24T06:42:48.907Z,57.50
2019-01-24T06:45:20.937Z,72.80
2019-01-24T06:47:51.031Z,66.75
2019-01-24T06:50:21.149Z,63.45
2019-01-24T06:52:51.169Z,67.80
2019-01-24T06:55:24.137Z,69.15
2019-01-24T06:57:54.180Z,70.47
2019-01-24T07:00:25.262Z,70.17
2019-01-24T07:02:55.295Z,69.75
2019-01-24T07:05:25.475Z,75.37
2019-01-24T07:07:55.551Z,65.60
2019-01-24T07:10:25.803Z,68.22
2019-01-24T07:12:55.942Z,63.87
2019-01-24T07:15:26.238Z,70.10
2019-01-24T07:17:56.330Z,59.08
2019-01-24T07:20:26.525Z,74.85
2019-01-24T07:22:56.653Z,64.30
2019-01-24T07:25:27.816Z,69.65
2019-01-24T07:27:57.885Z,65.32
2019-01-24T07:30:28.069Z,59.50
2019-01-24T07:32:58.200Z,71.95
2019-01-24T07:35:28.307Z,51.58
2019-01-24T07:37:58.372Z,47.23
2019-01-24T07:40:28.652Z,43.65
2019-01-24T07:42:58.839Z,42.27
2019-01-24T07:45:31.552Z,36.45
2019-01-24T07:48:01.685Z,38.88
2019-01-24T07:50:31.781Z,36.38
2019-01-24T07:53:21.045Z,32.03
2019-01-24T07:55:51.113Z,37.00
2019-01-24T07:58:22.222Z,32.75
2019-01-24T08:00:52.387Z,36.73
2019-01-24T08:03:22.415Z,34.30
2019-01-24T08:05:52.530Z,33.08
2019-01-24T08:08:22.635Z,30.43
2019-01-24T08:10:52.742Z,33.95
2019-01-24T08:13:22.846Z,40.05
2019-01-24T08:15:53.007Z,29.55
2019-01-24T08:18:23.180Z,32.50
2019-01-24T08:20:53.352Z,32.05
2019-01-24T08:23:23.485Z,33.25
2019-01-24T08:25:53.655Z,32.83
2019-01-24T08:28:23.651Z,30.57
2019-01-24T08:30:53.896Z,36.85
2019-01-24T08:33:24.211Z,30.02
2019-01-24T08:35:54.373Z,43.40
2019-01-24T08:38:24.529Z,36.63
2019-01-24T08:40:54.689Z,58.75
2019-01-24T08:43:24.791Z,37.93
2019-01-24T08:45:54.963Z,31.30
2019-01-24T08:48:25.097Z,35.30
2019-01-24T08:50:55.221Z,30.72
2019-01-24T08:53:25.269Z,38.65
2019-01-24T08:55:55.461Z,27.65
2019-01-24T08:58:25.597Z,33.00
2019-01-24T09:00:55.772Z,34.35
2019-01-24T09:03:25.914Z,32.45
2019-01-24T09:05:56.176Z,26.05
2019-01-24T09:08:26.352Z,35.83
2019-01-24T09:10:56.519Z,33.42
2019-01-24T09:13:26.661Z,32.03
2019-01-24T09:15:56.855Z,28.23
2019-01-24T09:18:27.999Z,37.88
2019-01-24T09:20:58.188Z,31.97
2019-01-24T09:23:28.345Z,30.88
2019-01-24T09:25:58.556Z,35.28
2019-01-24T09:28:28.641Z,33.25
2019-01-24T09:30:58.916Z,39.38
2019-01-24T09:33:29.101Z,30.82
2019-01-24T09:35:59.229Z,34.20
2019-01-24T09:38:30.262Z,40.52
2019-01-24T09:41:00.560Z,36.33
2019-01-24T09:43:31.827Z,35.50
2019-01-24T09:46:02.064Z,43.17
2019-01-24T09:48:32.319Z,31.60
2019-01-24T09:51:02.527Z,32.42
2019-01-24T09:53:32.667Z,31.15
2019-01-24T09:56:02.970Z,38.53
2019-01-24T09:58:33.139Z,32.98
2019-01-24T10:01:04.627Z,34.98
2019-01-24T10:03:34.664Z,31.17
2019-01-24T10:06:06.022Z,30.97
2019-01-24T10:08:36.177Z,34.75
2019-01-24T10:11:06.347Z,35.17
2019-01-24T10:13:36.518Z,34.05
2019-01-24T10:16:06.648Z,37.03
2019-01-24T10:18:36.722Z,33.55
2019-01-24T10:21:06.907Z,30.97
2019-01-24T10:23:37.097Z,30.30
2019-01-24T10:26:10.142Z,35.03
2019-01-24T10:28:40.577Z,36.38
2019-01-24T10:31:10.751Z,35.23
2019-01-24T10:33:40.854Z,33.83
2019-01-24T10:36:10.937Z,39.80
2019-01-24T10:38:41.069Z,41.53
2019-01-24T10:41:11.207Z,36.15
2019-01-24T10:43:41.283Z,36.30
2019-01-24T10:46:11.439Z,36.73
2019-01-24T10:48:41.622Z,36.35
2019-01-24T10:51:11.766Z,39.98
2019-01-24T10:53:41.876Z,32.28
2019-01-24T10:56:12.185Z,37.70
2019-01-24T10:58:42.356Z,39.18
2019-01-24T11:01:12.619Z,37.30
2019-01-24T11:03:42.791Z,38.00
2019-01-24T11:06:12.978Z,38.95
2019-01-24T11:08:52.756Z,35.03
2019-01-24T11:11:22.875Z,39.98
2019-01-24T11:13:52.988Z,35.88
2019-01-24T11:16:23.496Z,37.78
2019-01-24T11:18:53.886Z,35.33
2019-01-24T11:21:24.084Z,42.98
2019-01-24T11:23:54.141Z,31.82
2019-01-24T11:26:24.384Z,35.75
2019-01-24T11:28:54.592Z,35.92
2019-01-24T11:31:24.751Z,37.13
2019-01-24T11:33:54.962Z,37.73
2019-01-24T11:36:25.297Z,34.40
2019-01-24T11:38:55.435Z,33.18
2019-01-24T11:41:25.605Z,33.83
2019-01-24T11:43:55.750Z,37.73
2019-01-24T11:46:25.943Z,37.23
2019-01-24T11:48:56.064Z,34.75
2019-01-24T11:51:26.240Z,30.77
2019-01-24T11:53:56.309Z,31.85
2019-01-24T11:56:26.442Z,37.93
2019-01-24T11:58:56.576Z,29.67
2019-01-24T12:01:26.826Z,37.33
2019-01-24T12:03:56.980Z,35.65
2019-01-24T12:06:27.752Z,33.35
2019-01-24T12:08:57.899Z,31.40
2019-01-24T12:11:28.176Z,31.48
2019-01-24T12:13:58.240Z,32.35
2019-01-24T12:16:28.416Z,34.80
2019-01-24T12:18:58.591Z,36.58
2019-01-24T12:21:28.944Z,39.55
2019-01-24T12:23:59.140Z,32.73
2019-01-24T12:26:29.391Z,32.42
2019-01-24T12:28:59.592Z,25.97
2019-01-24T12:31:29.863Z,32.17
2019-01-24T12:34:00.041Z,35.73
2019-01-24T12:36:30.158Z,37.58
2019-01-24T12:39:00.343Z,45.33
2019-01-24T12:41:31.500Z,38.05
2019-01-24T12:44:01.578Z,43.55
2019-01-24T12:46:31.799Z,33.33
2019-01-24T12:49:02.608Z,42.73
2019-01-24T12:51:33.174Z,34.73
2019-01-24T12:54:03.353Z,33.73
2019-01-24T12:56:33.524Z,32.80
2019-01-24T12:59:03.660Z,34.78
2019-01-24T13:01:33.758Z,36.08
2019-01-24T13:04:03.756Z,34.10
2019-01-24T13:06:34.288Z,33.85
2019-01-24T13:09:06.556Z,42.10
2019-01-24T13:11:36.780Z,35.95
2019-01-24T13:14:06.943Z,39.70
2019-01-24T13:16:37.111Z,36.05
2019-01-24T13:19:07.261Z,35.63
2019-01-24T13:21:37.384Z,36.70
2019-01-24T13:24:08.265Z,34.15
2019-01-24T13:26:38.372Z,38.00
2019-01-24T13:29:08.534Z,31.48
2019-01-24T13:31:38.797Z,35.17
2019-01-24T13:34:09.034Z,35.30
2019-01-24T13:36:39.632Z,32.85
2019-01-24T13:39:11.561Z,36.15
2019-01-24T13:41:42.571Z,34.08
2019-01-24T13:44:12.849Z,37.83
2019-01-24T13:46:43.041Z,32.40
2019-01-24T13:49:13.672Z,38.58
2019-01-24T13:51:43.992Z,37.58
2019-01-24T13:54:14.474Z,39.53
2019-01-24T13:56:45.811Z,29.52
2019-01-24T13:59:16.038Z,38.10
2019-01-24T14:01:46.365Z,45.25
2019-01-24T14:04:20.473Z,37.80
2019-01-24T14:06:50.723Z,34.60
2019-01-24T14:09:20.889Z,42.55
2019-01-24T14:11:51.279Z,33.67
2019-01-24T14:14:21.462Z,38.83
2019-01-24T14:16:51.645Z,33.02
2019-01-24T14:19:21.816Z,44.15
2019-01-24T14:21:52.003Z,38.90
2019-01-24T14:24:22.195Z,37.70
2019-01-24T14:26:52.383Z,41.13
2019-01-24T14:29:24.290Z,40.52
2019-01-24T14:31:54.450Z,37.55
2019-01-24T14:34:24.520Z,39.35
2019-01-24T14:36:54.750Z,35.80
2019-01-24T14:39:24.808Z,36.10
2019-01-24T14:41:54.977Z,33.95
2019-01-24T14:44:25.139Z,41.05
2019-01-24T14:46:55.325Z,38.20
2019-01-24T14:49:25.491Z,36.95
2019-01-24T14:51:55.650Z,42.00
2019-01-24T14:54:25.698Z,33.88
2019-01-24T14:56:56.061Z,35.35
2019-01-24T14:59:26.237Z,41.90
2019-01-24T15:01:56.338Z,40.78
2019-01-24T15:04:26.498Z,39.75
2019-01-24T15:06:56.754Z,39.65
2019-01-24T15:09:26.933Z,37.85
2019-01-24T15:11:57.078Z,39.92
2019-01-24T15:14:27.200Z,45.38
2019-01-24T15:16:57.330Z,40.33
2019-01-24T15:19:27.480Z,41.35
2019-01-24T15:21:57.601Z,39.18
2019-01-24T15:24:27.742Z,37.83
2019-01-24T15:26:57.932Z,38.25
2019-01-24T15:29:29.076Z,43.63
2019-01-24T15:31:59.273Z,43.90
2019-01-24T15:34:29.420Z,38.60
2019-01-24T15:36:59.821Z,44.27
2019-01-24T15:39:29.999Z,36.73
2019-01-24T15:42:00.212Z,30.88
2019-01-24T15:44:30.310Z,42.40
2019-01-24T15:47:00.582Z,36.58
2019-01-24T15:49:30.920Z,35.40
2019-01-24T15:52:01.142Z,35.70
2019-01-24T15:54:31.341Z,36.45
2019-01-24T15:57:01.520Z,49.75
2019-01-24T15:59:31.813Z,36.10
2019-01-24T16:02:01.992Z,33.55
2019-01-24T16:04:32.255Z,39.13
2019-01-24T16:07:02.473Z,37.75
2019-01-24T16:09:32.754Z,37.00
2019-01-24T16:12:02.928Z,36.05
2019-01-24T16:14:33.041Z,33.25
2019-01-24T16:17:03.348Z,36.98
2019-01-24T16:19:33.606Z,38.98
2019-01-24T16:22:03.784Z,42.67
2019-01-24T16:24:33.971Z,35.55
2019-01-24T16:27:04.964Z,30.52
2019-01-24T16:29:35.112Z,38.53
2019-01-24T16:32:06.229Z,38.88
2019-01-24T16:34:36.437Z,37.58
2019-01-24T16:37:06.532Z,36.23
2019-01-24T16:39:36.737Z,43.40
2019-01-24T16:42:06.902Z,36.53
2019-01-24T16:44:37.161Z,42.78
2019-01-24T16:47:07.239Z,41.90
2019-01-24T16:49:37.530Z,40.78
2019-01-24T16:52:07.717Z,34.30
2019-01-24T16:54:37.980Z,39.13
2019-01-24T16:57:08.112Z,42.90
2019-01-24T16:59:38.359Z,41.23
2019-01-24T17:02:08.478Z,39.45
2019-01-24T17:04:38.696Z,37.58
2019-01-24T17:07:09.091Z,35.60
2019-01-24T17:09:39.322Z,37.40
2019-01-24T17:12:09.504Z,36.68
2019-01-24T17:14:39.706Z,42.93
2019-01-24T17:17:10.025Z,32.63
2019-01-24T17:19:40.331Z,35.08
2019-01-24T17:22:10.516Z,40.58
2019-01-24T17:24:40.722Z,40.15
2019-01-24T17:27:10.830Z,42.62
2019-01-24T17:29:41.183Z,34.10
2019-01-24T17:32:11.472Z,38.98
2019-01-24T17:34:41.924Z,48.02
2019-01-24T17:37:12.083Z,41.77
2019-01-24T17:39:42.304Z,35.43
2019-01-24T17:42:12.432Z,37.25
2019-01-24T17:44:42.698Z,41.55
2019-01-24T17:47:13.472Z,40.80
2019-01-24T17:49:43.667Z,42.80
2019-01-24T17:52:13.840Z,42.93
2019-01-24T17:54:43.884Z,44.23
2019-01-24T17:57:13.980Z,42.78
2019-01-24T17:59:44.030Z,43.38
2019-01-24T18:02:14.286Z,40.40
2019-01-24T18:04:44.552Z,43.00
2019-01-24T18:07:14.831Z,44.23
2019-01-24T18:09:44.955Z,43.30
2019-01-24T18:12:15.149Z,60.33
2019-01-24T18:14:45.340Z,52.67
2019-01-24T18:17:15.521Z,48.85
2019-01-24T18:19:45.787Z,43.25
2019-01-24T18:22:15.966Z,48.02
2019-01-24T18:24:46.124Z,43.13
2019-01-24T18:27:16.284Z,40.48
2019-01-24T18:29:46.563Z,46.95
2019-01-24T18:32:16.733Z,43.02
2019-01-24T18:34:46.869Z,43.85
2019-01-24T18:37:17.009Z,38.80
2019-01-24T18:39:47.141Z,42.75
2019-01-24T18:42:17.307Z,53.83
2019-01-24T18:44:47.746Z,42.15
2019-01-24T18:47:19.219Z,41.20
2019-01-24T18:49:49.360Z,46.95
2019-01-24T18:52:19.510Z,43.80
2019-01-24T18:54:49.612Z,45.12
2019-01-24T18:57:19.733Z,45.17
2019-01-24T18:59:49.797Z,39.75
2019-01-24T19:02:19.977Z,41.18
2019-01-24T19:04:50.170Z,47.40
2019-01-24T19:07:20.543Z,43.40
2019-01-24T19:09:50.601Z,43.02
2019-01-24T19:12:20.795Z,39.10
2019-01-24T19:14:52.003Z,42.03
2019-01-24T19:17:22.205Z,38.70
2019-01-24T19:19:52.376Z,46.05
2019-01-24T19:22:22.564Z,41.40
2019-01-24T19:24:52.633Z,38.65
2019-01-24T19:27:22.862Z,39.63
2019-01-24T19:29:53.077Z,39.00
2019-01-24T19:32:23.231Z,42.60
2019-01-24T19:34:53.433Z,47.48
2019-01-24T19:37:23.622Z,42.10
2019-01-24T19:39:53.778Z,51.37
2019-01-24T19:42:24.983Z,47.08
2019-01-24T19:44:55.138Z,37.13
2019-01-24T19:47:36.888Z,39.80
2019-01-24T19:50:09.014Z,56.68
2019-01-24T19:52:39.588Z,61.13
2019-01-24T19:55:10.795Z,76.85
2019-01-24T19:57:41.063Z,60.33
2019-01-24T20:00:14.429Z,46.80
2019-01-24T20:02:44.720Z,45.48
2019-01-24T20:05:15.406Z,41.28
2019-01-24T20:07:45.750Z,38.67
2019-01-24T20:10:17.909Z,38.05
2019-01-24T20:12:48.194Z,50.38
2019-01-24T20:15:20.362Z,46.18
2019-01-24T20:17:50.730Z,47.67
2019-01-24T20:20:20.952Z,44.75
2019-01-24T20:22:51.538Z,49.03
2019-01-24T20:25:23.785Z,50.20
2019-01-24T20:27:54.003Z,49.23
2019-01-24T20:30:28.920Z,46.40
2019-01-24T20:33:00.106Z,43.63
2019-01-24T20:35:42.127Z,46.18
2019-01-24T20:38:12.449Z,36.05
2019-01-24T20:40:42.574Z,39.40
2019-01-24T20:43:13.368Z,45.40
2019-01-24T20:45:44.345Z,46.68
2019-01-24T20:48:15.612Z,43.73
2019-01-24T20:50:45.780Z,40.52
2019-01-24T20:53:16.051Z,44.33
2019-01-24T20:55:46.198Z,44.50
2019-01-24T20:58:16.516Z,42.98
2019-01-24T21:00:46.688Z,44.27
2019-01-24T21:03:16.913Z,44.50
2019-01-24T21:05:47.234Z,42.67
2019-01-24T21:08:17.705Z,46.23
2019-01-24T21:10:47.911Z,41.30
2019-01-24T21:13:18.228Z,52.45
2019-01-24T21:15:48.444Z,49.88
2019-01-24T21:18:19.099Z,73.65
2019-01-24T21:20:49.354Z,59.15
2019-01-24T21:23:19.978Z,48.83
2019-01-24T21:25:50.444Z,49.33
2019-01-24T21:28:22.340Z,44.40
2019-01-24T21:30:52.738Z,45.25
2019-01-24T21:33:23.100Z,45.80
2019-01-24T21:35:53.715Z,41.02
2019-01-24T21:38:25.489Z,43.08
2019-01-24T21:40:56.356Z,43.20
2019-01-24T21:43:29.432Z,43.80
2019-01-24T21:45:59.505Z,40.63
2019-01-24T21:48:31.160Z,42.98
2019-01-24T21:51:21.658Z,37.95
2019-01-24T21:53:54.108Z,46.35
2019-01-24T21:56:24.898Z,37.42
2019-01-24T21:58:55.422Z,44.85
2019-01-24T22:01:26.642Z,41.65
2019-01-24T22:03:57.470Z,41.20
2019-01-24T22:06:28.112Z,41.13
2019-01-24T22:08:59.672Z,42.98
2019-01-24T22:11:29.889Z,43.10
2019-01-24T22:14:00.423Z,43.58
2019-01-24T22:16:30.617Z,39.53
2019-01-24T22:19:01.197Z,45.10
2019-01-24T22:21:31.376Z,39.15
2019-01-24T22:24:01.927Z,52.00
2019-01-24T22:26:32.614Z,44.70
2019-01-24T22:29:03.480Z,45.75
2019-01-24T22:31:35.087Z,41.58
2019-01-24T22:34:05.309Z,47.60
2019-01-24T22:36:35.501Z,40.95
2019-01-24T22:39:08.875Z,40.38
2019-01-24T22:41:38.991Z,42.78
2019-01-24T22:44:09.183Z,46.53
2019-01-24T22:46:39.316Z,44.55
2019-01-24T22:49:10.286Z,43.80
2019-01-24T22:51:40.553Z,48.42
2019-01-24T22:54:11.794Z,42.65
2019-01-24T22:56:41.967Z,50.78
2019-01-24T22:59:12.217Z,40.70
2019-01-24T23:01:49.087Z,50.12
2019-01-24T23:04:24.521Z,49.45
2019-01-24T23:06:54.660Z,42.73
2019-01-24T23:09:25.543Z,47.80
2019-01-24T23:11:55.680Z,41.10
2019-01-24T23:14:25.876Z,48.63
2019-01-24T23:16:56.010Z,44.63
2019-01-24T23:19:27.357Z,47.30
2019-01-24T23:21:57.504Z,42.88
2019-01-24T23:24:27.739Z,35.63
2019-01-24T23:26:57.874Z,44.35
2019-01-24T23:29:28.116Z,50.70
2019-01-24T23:31:58.266Z,48.58
2019-01-24T23:34:28.452Z,51.28
2019-01-24T23:36:58.609Z,42.55
2019-01-24T23:39:28.809Z,46.18
2019-01-24T23:41:58.967Z,41.08
2019-01-24T23:44:29.203Z,49.58
2019-01-24T23:46:59.339Z,45.52
2019-01-24T23:49:29.580Z,50.80
2019-01-24T23:51:59.726Z,48.42
2019-01-24T23:54:29.944Z,43.38
2019-01-24T23:57:00.108Z,43.42
2019-01-24T23:59:30.411Z,50.50
